首页
METAR-TAF:

METAR-TAF

机场 :

Oscoda-Wurtsmith Airport

Oscoda, 密歇根州, 美国

纬度: 44-27N, 经度: 083-22W, 海拔: 193米

当前天气观测

该预报发布于23分钟前的11:55 UTC
风速18节,风向西北,有时为25节阵风
温度 -8°C
湿度 62%
气压 1007 hPa
能見度: 16.1公里
多云层高于7500英尺

METAR: KOSC 271155Z AUTO 31018G25KT 10SM BKN075 M08/M14 A2975 RMK AO2 T10811143 11055 21081

时间: 07:18 (12:18 UTC)


TAF: 丢失

超过4000个机场的气象观测和天气预报(METAR&TAF报告)。

可查询的气象台以黄色和红色小点在地图上表示。

将鼠标移到小点上方,可查看气象台名称。

然后点击查看天气观测和预报。

如需切换地图:点击带黑十字的绿色按钮放大地图;点击带横线的绿色按钮缩小地图;或者点击绿色箭头查看邻近地区的地图。


METAR-TAF: